createdAt,value
2022-09-12T18:33:08.775Z,18.70
2022-09-12T18:35:55.825Z,18.70
2022-09-12T18:38:44.562Z,18.60
2022-09-12T18:41:31.542Z,18.70
2022-09-12T18:44:18.487Z,18.60
2022-09-12T18:47:05.643Z,18.60
2022-09-12T18:49:53.176Z,18.60
2022-09-12T18:52:40.064Z,18.60
2022-09-12T18:55:26.988Z,18.50
2022-09-12T18:58:13.847Z,18.40
2022-09-12T19:01:08.561Z,18.40
2022-09-12T19:03:55.690Z,18.30
2022-09-12T19:06:44.699Z,18.30
2022-09-12T19:09:32.740Z,18.20
2022-09-12T19:12:19.590Z,18.20
2022-09-12T19:15:08.954Z,18.20
2022-09-12T19:17:55.783Z,18.20
2022-09-12T19:20:42.747Z,18.20
2022-09-12T19:23:31.533Z,18.10
2022-09-12T19:26:19.875Z,18.10
2022-09-12T19:29:06.815Z,18.00
2022-09-12T19:31:55.467Z,18.00
2022-09-12T19:34:42.311Z,17.90
2022-09-12T19:37:29.683Z,17.80
2022-09-12T19:40:17.338Z,17.70
2022-09-12T19:43:04.216Z,17.70
2022-09-12T19:45:51.733Z,17.70
2022-09-12T19:48:38.589Z,17.70
2022-09-12T19:51:25.627Z,17.60
2022-09-12T19:54:12.831Z,17.60
2022-09-12T19:57:00.315Z,17.50
2022-09-12T19:59:47.260Z,17.50
2022-09-12T20:02:34.168Z,17.50
2022-09-12T20:05:21.400Z,17.50
2022-09-12T20:08:08.976Z,17.50
2022-09-12T20:10:57.127Z,17.40
2022-09-12T20:13:45.713Z,17.40
2022-09-12T20:16:32.656Z,17.40
2022-09-12T20:19:19.620Z,17.40
2022-09-12T20:22:06.560Z,17.40
2022-09-12T20:24:53.404Z,17.40
2022-09-12T20:27:40.253Z,17.30
2022-09-12T20:30:27.774Z,17.30
2022-09-12T20:33:14.621Z,17.30
2022-09-12T20:36:06.419Z,17.20
2022-09-12T20:38:55.823Z,17.20
2022-09-12T20:41:42.759Z,17.10
2022-09-12T20:44:29.727Z,17.10
2022-09-12T20:47:17.403Z,17.10
2022-09-12T20:50:04.979Z,17.10
2022-09-12T20:52:51.833Z,17.10
2022-09-12T20:55:38.661Z,17.00
2022-09-12T20:58:25.500Z,16.90
2022-09-12T21:01:15.011Z,16.90
2022-09-12T21:04:02.869Z,16.80
2022-09-12T21:06:49.708Z,16.80
2022-09-12T21:09:36.700Z,16.80
2022-09-12T21:12:23.852Z,16.80
2022-09-12T21:15:10.783Z,16.70
2022-09-12T21:17:57.756Z,16.70
2022-09-12T21:20:51.305Z,16.70
2022-09-12T21:23:38.292Z,16.70
2022-09-12T21:26:25.265Z,16.60
2022-09-12T21:29:12.250Z,16.60
2022-09-12T21:31:59.076Z,16.60
2022-09-12T21:34:45.988Z,16.50
2022-09-12T21:37:34.318Z,16.50
2022-09-12T21:40:21.179Z,16.50
2022-09-12T21:43:12.489Z,16.50
2022-09-12T21:46:00.023Z,16.40
2022-09-12T21:48:46.905Z,16.40
2022-09-12T21:51:33.949Z,16.40
2022-09-12T21:54:21.411Z,16.30
2022-09-12T21:57:08.457Z,16.30
2022-09-12T21:59:55.270Z,16.20
2022-09-12T22:02:42.472Z,16.20
2022-09-12T22:05:32.700Z,16.20
2022-09-12T22:08:19.537Z,16.20
2022-09-12T22:11:08.778Z,16.10
2022-09-12T22:13:55.603Z,16.10
2022-09-12T22:16:42.514Z,16.00
2022-09-12T22:19:29.363Z,16.00
2022-09-12T22:22:34.682Z,16.00
2022-09-12T22:25:23.834Z,16.00
2022-09-12T22:28:11.419Z,16.00
2022-09-12T22:30:58.771Z,16.10
2022-09-12T22:33:45.863Z,16.10
2022-09-12T22:36:35.865Z,16.10
2022-09-12T22:39:25.306Z,16.20
2022-09-12T22:42:12.142Z,16.20
2022-09-12T22:44:59.622Z,16.20
2022-09-12T22:47:46.487Z,16.30
2022-09-12T22:50:33.332Z,16.30
2022-09-12T22:53:20.152Z,16.40
2022-09-12T22:56:08.343Z,16.40
2022-09-12T22:58:55.158Z,16.40
2022-09-12T23:01:42.600Z,16.40
2022-09-12T23:04:29.443Z,16.50
2022-09-12T23:07:16.252Z,16.50
2022-09-12T23:10:04.105Z,16.50
2022-09-12T23:12:51.099Z,16.60
2022-09-12T23:15:38.164Z,16.50
2022-09-12T23:18:26.123Z,16.50
2022-09-12T23:21:15.089Z,16.50
2022-09-12T23:24:02.451Z,16.40
2022-09-12T23:26:49.296Z,16.40
2022-09-12T23:29:36.153Z,16.40
2022-09-12T23:32:23.852Z,16.40
2022-09-12T23:35:11.728Z,16.40
2022-09-12T23:37:58.560Z,16.40
2022-09-12T23:40:45.372Z,16.40
2022-09-12T23:43:33.220Z,16.40
2022-09-12T23:46:21.110Z,16.40
2022-09-12T23:49:08.188Z,16.40
2022-09-12T23:51:55.674Z,16.50
2022-09-12T23:54:42.520Z,16.40
2022-09-12T23:57:29.350Z,16.40
